sensor_id;sensor_type;location;lat;lon;timestamp;pressure;altitude;pressure_sealevel;temperature;humidity
76478;BME280;65309;49.790;18.972;2023-07-08T00:03:49;59759.59;;;-145.46;65.38
76478;BME280;65309;49.790;18.972;2023-07-08T00:08:51;59763.78;;;-145.46;64.52
76478;BME280;65309;49.790;18.972;2023-07-08T00:13:54;59742.78;;;-145.46;64.77
76478;BME280;65309;49.790;18.972;2023-07-08T00:18:56;59759.59;;;-145.46;64.91
76478;BME280;65309;49.790;18.972;2023-07-08T00:23:58;59772.22;;;-145.46;64.03
76478;BME280;65309;49.790;18.972;2023-07-08T00:29:02;59749.09;;;-145.46;63.77
76478;BME280;65309;49.790;18.972;2023-07-08T00:34:04;59778.50;;;-145.46;63.80
76478;BME280;65309;49.790;18.972;2023-07-08T00:39:12;59776.41;;;-145.46;64.12
76478;BME280;65309;49.790;18.972;2023-07-08T00:44:16;59746.97;;;-145.46;63.37
76478;BME280;65309;49.790;18.972;2023-07-08T00:49:37;59791.13;;;-145.46;63.73
76478;BME280;65309;49.790;18.972;2023-07-08T00:54:40;59768.00;;;-145.46;63.89
76478;BME280;65309;49.790;18.972;2023-07-08T00:59:47;59803.75;;;-145.46;64.15
76478;BME280;65309;49.790;18.972;2023-07-08T01:04:52;59761.69;;;-145.46;64.67
76478;BME280;65309;49.790;18.972;2023-07-08T01:10:01;59784.81;;;-145.46;64.67
76478;BME280;65309;49.790;18.972;2023-07-08T01:15:07;59759.59;;;-145.46;64.74
76478;BME280;65309;49.790;18.972;2023-07-08T01:20:10;59780.63;;;-145.46;65.47
76478;BME280;65309;49.790;18.972;2023-07-08T01:25:18;59763.78;;;-145.46;66.87
76478;BME280;65309;49.790;18.972;2023-07-08T01:30:21;59824.75;;;-145.46;66.58
76478;BME280;65309;49.790;18.972;2023-07-08T01:35:23;59803.75;;;-145.46;66.88
76478;BME280;65309;49.790;18.972;2023-07-08T01:40:30;59763.78;;;-145.46;67.22
76478;BME280;65309;49.790;18.972;2023-07-08T01:45:35;59784.81;;;-145.46;68.23
76478;BME280;65309;49.790;18.972;2023-07-08T01:50:42;59763.78;;;-145.46;68.90
76478;BME280;65309;49.790;18.972;2023-07-08T01:55:46;59772.22;;;-145.46;69.30
76478;BME280;65309;49.790;18.972;2023-07-08T02:00:48;59751.19;;;-145.46;70.31
76478;BME280;65309;49.790;18.972;2023-07-08T02:05:53;59763.78;;;-145.46;70.50
76478;BME280;65309;49.790;18.972;2023-07-08T02:10:58;59824.75;;;-145.46;70.85
76478;BME280;65309;49.790;18.972;2023-07-08T02:16:00;59751.19;;;-145.46;71.32
76478;BME280;65309;49.790;18.972;2023-07-08T02:21:03;59797.44;;;-145.46;72.02
76478;BME280;65309;49.790;18.972;2023-07-08T02:26:06;59831.06;;;-145.46;72.21
76478;BME280;65309;49.790;18.972;2023-07-08T02:31:09;59776.41;;;-145.46;71.89
76478;BME280;65309;49.790;18.972;2023-07-08T02:36:11;59791.13;;;-145.46;71.97
76478;BME280;65309;49.790;18.972;2023-07-08T02:41:14;59772.22;;;-145.46;72.21
76478;BME280;65309;49.790;18.972;2023-07-08T02:46:17;59776.41;;;-145.46;72.02
76478;BME280;65309;49.790;18.972;2023-07-08T02:51:21;59768.00;;;-145.46;72.47
76478;BME280;65309;49.790;18.972;2023-07-08T02:56:24;59782.72;;;-145.46;72.00
76478;BME280;65309;49.790;18.972;2023-07-08T03:01:28;59816.34;;;-145.46;71.91
76478;BME280;65309;49.790;18.972;2023-07-08T03:06:32;59789.03;;;-145.46;71.20
76478;BME280;65309;49.790;18.972;2023-07-08T03:11:36;59793.22;;;-145.46;71.28
76478;BME280;65309;49.790;18.972;2023-07-08T03:16:38;59784.81;;;-145.46;71.35
76478;BME280;65309;49.790;18.972;2023-07-08T03:21:40;59784.81;;;-145.46;69.75
76478;BME280;65309;49.790;18.972;2023-07-08T03:26:44;59820.56;;;-145.46;69.16
76478;BME280;65309;49.790;18.972;2023-07-08T03:31:46;59763.78;;;-145.46;68.28
76478;BME280;65309;49.790;18.972;2023-07-08T03:36:50;59757.50;;;-145.46;65.07
76478;BME280;65309;49.790;18.972;2023-07-08T03:41:53;59744.88;;;-145.46;58.78
76478;BME280;65309;49.790;18.972;2023-07-08T03:46:55;59715.44;;;-145.46;55.83
76478;BME280;65309;49.790;18.972;2023-07-08T03:51:57;59730.16;;;-145.46;53.00
76478;BME280;65309;49.790;18.972;2023-07-08T03:57:01;59700.75;;;-145.46;50.58
76478;BME280;65309;49.790;18.972;2023-07-08T04:02:03;59740.69;;;-145.46;51.13
76478;BME280;65309;49.790;18.972;2023-07-08T04:07:06;59721.75;;;-145.46;52.78
76478;BME280;65309;49.790;18.972;2023-07-08T04:12:10;59736.47;;;-145.46;53.58
76478;BME280;65309;49.790;18.972;2023-07-08T04:17:12;59744.88;;;-145.46;57.62
76478;BME280;65309;49.790;18.972;2023-07-08T04:22:15;59721.75;;;-145.46;60.33
76478;BME280;65309;49.790;18.972;2023-07-08T04:27:18;59751.19;;;-145.46;61.52
76478;BME280;65309;49.790;18.972;2023-07-08T04:32:20;59740.69;;;-145.46;62.08
76478;BME280;65309;49.790;18.972;2023-07-08T04:37:26;59772.22;;;-145.46;63.73
76478;BME280;65309;49.790;18.972;2023-07-08T04:42:30;59770.09;;;-145.46;64.29
76478;BME280;65309;49.790;18.972;2023-07-08T04:47:32;59751.19;;;-145.46;64.27
76478;BME280;65309;49.790;18.972;2023-07-08T04:52:35;59755.38;;;-145.46;64.81
76478;BME280;65309;49.790;18.972;2023-07-08T04:57:38;59759.59;;;-145.46;64.25
76478;BME280;65309;49.790;18.972;2023-07-08T05:02:40;59770.09;;;-145.46;64.03
76478;BME280;65309;49.790;18.972;2023-07-08T05:07:42;59782.72;;;-145.46;63.48
76478;BME280;65309;49.790;18.972;2023-07-08T05:12:47;59770.09;;;-145.46;61.75
76478;BME280;65309;49.790;18.972;2023-07-08T05:17:50;59738.56;;;-145.46;61.26
76478;BME280;65309;49.790;18.972;2023-07-08T05:22:53;59799.53;;;-145.46;60.81
76478;BME280;65309;49.790;18.972;2023-07-08T05:27:57;59738.56;;;-145.46;59.64
76478;BME280;65309;49.790;18.972;2023-07-08T05:32:59;59776.41;;;-145.46;58.70
76478;BME280;65309;49.790;18.972;2023-07-08T05:38:01;59768.00;;;-145.46;56.80
76478;BME280;65309;49.790;18.972;2023-07-08T05:43:04;59736.47;;;-145.46;53.96
76478;BME280;65309;49.790;18.972;2023-07-08T05:48:07;59765.91;;;-145.46;53.85
76478;BME280;65309;49.790;18.972;2023-07-08T05:53:09;59763.78;;;-145.46;53.16
76478;BME280;65309;49.790;18.972;2023-07-08T05:58:12;59755.38;;;-145.46;54.13
76478;BME280;65309;49.790;18.972;2023-07-08T06:03:27;59730.16;;;-145.46;53.51
76478;BME280;65309;49.790;18.972;2023-07-08T06:08:29;59723.84;;;-145.46;51.83
76478;BME280;65309;49.790;18.972;2023-07-08T06:13:32;59749.09;;;-145.46;55.63
76478;BME280;65309;49.790;18.972;2023-07-08T06:18:35;59753.28;;;-145.46;50.85
76478;BME280;65309;49.790;18.972;2023-07-08T06:23:37;59700.75;;;-145.46;50.86
76478;BME280;65309;49.790;18.972;2023-07-08T06:28:40;59715.44;;;-145.46;50.25
76478;BME280;65309;49.790;18.972;2023-07-08T06:33:43;59713.34;;;-145.46;47.41
76478;BME280;65309;49.790;18.972;2023-07-08T06:38:45;59734.38;;;-145.46;46.56
76478;BME280;65309;49.790;18.972;2023-07-08T06:43:48;59734.38;;;-145.46;48.00
76478;BME280;65309;49.790;18.972;2023-07-08T06:48:50;59730.16;;;-145.46;46.94
76478;BME280;65309;49.790;18.972;2023-07-08T06:53:52;59711.25;;;-145.46;48.73
76478;BME280;65309;49.790;18.972;2023-07-08T06:58:56;59709.16;;;-145.46;50.46
76478;BME280;65309;49.790;18.972;2023-07-08T07:03:58;59711.25;;;-145.46;47.50
76478;BME280;65309;49.790;18.972;2023-07-08T07:09:01;59686.03;;;-145.46;46.02
76478;BME280;65309;49.790;18.972;2023-07-08T07:14:04;59629.28;;;-145.46;41.05
76478;BME280;65309;49.790;18.972;2023-07-08T07:19:26;59669.22;;;-145.46;36.88
76478;BME280;65309;49.790;18.972;2023-07-08T07:24:28;59654.50;;;-145.46;38.51
76478;BME280;65309;49.790;18.972;2023-07-08T07:29:41;59700.75;;;-145.46;36.73
76478;BME280;65309;49.790;18.972;2023-07-08T07:34:46;59671.31;;;-145.46;36.83
76478;BME280;65309;49.790;18.972;2023-07-08T07:39:48;59662.91;;;-145.46;34.88
76478;BME280;65309;49.790;18.972;2023-07-08T07:44:51;59637.69;;;-145.46;35.12
76478;BME280;65309;49.790;18.972;2023-07-08T07:49:53;59631.38;;;-145.46;33.95
76478;BME280;65309;49.790;18.972;2023-07-08T07:54:56;59620.88;;;-145.46;33.07
76478;BME280;65309;49.790;18.972;2023-07-08T07:59:59;59595.63;;;-145.46;34.78
76478;BME280;65309;49.790;18.972;2023-07-08T08:05:01;59616.66;;;-145.46;32.99
76478;BME280;65309;49.790;18.972;2023-07-08T08:10:04;59648.19;;;-145.46;33.25
76478;BME280;65309;49.790;18.972;2023-07-08T08:15:08;59608.25;;;-145.46;31.03
76478;BME280;65309;49.790;18.972;2023-07-08T08:20:10;59599.84;;;-145.46;32.30
76478;BME280;65309;49.790;18.972;2023-07-08T08:25:13;59643.97;;;-145.46;32.21
76478;BME280;65309;49.790;18.972;2023-07-08T08:30:17;59591.44;;;-145.46;30.60
76478;BME280;65309;49.790;18.972;2023-07-08T08:35:19;59625.06;;;-145.46;32.49
76478;BME280;65309;49.790;18.972;2023-07-08T08:40:22;59620.88;;;-145.46;30.80
76478;BME280;65309;49.790;18.972;2023-07-08T08:45:27;59637.69;;;-145.46;31.59
76478;BME280;65309;49.790;18.972;2023-07-08T08:50:32;59620.88;;;-145.46;30.53
76478;BME280;65309;49.790;18.972;2023-07-08T08:55:35;59654.50;;;-145.46;32.49
76478;BME280;65309;49.790;18.972;2023-07-08T09:00:47;59620.88;;;-145.46;31.11
76478;BME280;65309;49.790;18.972;2023-07-08T09:05:58;59620.88;;;-145.46;30.68
76478;BME280;65309;49.790;18.972;2023-07-08T09:11:10;59606.16;;;-145.46;31.26
76478;BME280;65309;49.790;18.972;2023-07-08T09:16:20;59578.81;;;-145.46;31.26
76478;BME280;65309;49.790;18.972;2023-07-08T09:21:31;59604.03;;;-145.46;28.71
76478;BME280;65309;49.790;18.972;2023-07-08T09:26:35;59612.44;;;-145.46;31.22
76478;BME280;65309;49.790;18.972;2023-07-08T09:31:40;59583.03;;;-145.46;29.75
76478;BME280;65309;49.790;18.972;2023-07-08T09:36:47;59599.84;;;-145.46;30.95
76478;BME280;65309;49.790;18.972;2023-07-08T09:41:50;59587.22;;;-145.46;28.93
76478;BME280;65309;49.790;18.972;2023-07-08T09:46:54;59595.63;;;-145.46;29.37
76478;BME280;65309;49.790;18.972;2023-07-08T09:51:58;59578.81;;;-145.46;29.98
76478;BME280;65309;49.790;18.972;2023-07-08T09:57:04;59566.22;;;-145.46;29.78
76478;BME280;65309;49.790;18.972;2023-07-08T10:02:27;59610.34;;;-145.46;30.79
76478;BME280;65309;49.790;18.972;2023-07-08T10:07:31;59583.03;;;-145.46;31.38
76478;BME280;65309;49.790;18.972;2023-07-08T10:12:35;59599.84;;;-145.46;29.38
76478;BME280;65309;49.790;18.972;2023-07-08T10:17:40;59604.03;;;-145.46;31.83
76478;BME280;65309;49.790;18.972;2023-07-08T10:22:49;59574.63;;;-145.46;28.15
76478;BME280;65309;49.790;18.972;2023-07-08T10:28:03;59604.03;;;-145.46;27.98
76478;BME280;65309;49.790;18.972;2023-07-08T10:33:26;59599.84;;;-145.46;28.63
76478;BME280;65309;49.790;18.972;2023-07-08T10:38:42;59616.66;;;-145.46;28.86
76478;BME280;65309;49.790;18.972;2023-07-08T10:43:56;59606.16;;;-145.46;28.40
76478;BME280;65309;49.790;18.972;2023-07-08T10:49:21;59591.44;;;-145.46;27.66
76478;BME280;65309;49.790;18.972;2023-07-08T10:54:35;59566.22;;;-145.46;28.67
76478;BME280;65309;49.790;18.972;2023-07-08T10:59:50;59559.91;;;-145.46;28.87
76478;BME280;65309;49.790;18.972;2023-07-08T11:05:04;59557.81;;;-145.46;29.50
76478;BME280;65309;49.790;18.972;2023-07-08T11:10:14;59578.81;;;-145.46;31.95
76478;BME280;65309;49.790;18.972;2023-07-08T11:15:21;59570.41;;;-145.46;32.29
76478;BME280;65309;49.790;18.972;2023-07-08T11:20:34;59604.03;;;-145.46;32.19
76478;BME280;65309;49.790;18.972;2023-07-08T11:25:38;59614.56;;;-145.46;31.80
76478;BME280;65309;49.790;18.972;2023-07-08T11:30:43;59593.53;;;-145.46;33.24
76478;BME280;65309;49.790;18.972;2023-07-08T11:35:51;59601.94;;;-145.46;32.42
76478;BME280;65309;49.790;18.972;2023-07-08T11:40:57;59601.94;;;-145.46;33.43
76478;BME280;65309;49.790;18.972;2023-07-08T11:46:05;59589.34;;;-145.46;31.89
76478;BME280;65309;49.790;18.972;2023-07-08T11:51:16;59601.94;;;-145.46;33.42
76478;BME280;65309;49.790;18.972;2023-07-08T11:56:22;59587.22;;;-145.46;31.73
76478;BME280;65309;49.790;18.972;2023-07-08T12:01:27;59618.75;;;-145.46;33.52
76478;BME280;65309;49.790;18.972;2023-07-08T12:06:46;59572.50;;;-145.46;31.95
76478;BME280;65309;49.790;18.972;2023-07-08T12:11:53;59570.41;;;-145.46;33.51
76478;BME280;65309;49.790;18.972;2023-07-08T12:16:56;59612.44;;;-145.46;32.12
76478;BME280;65309;49.790;18.972;2023-07-08T12:21:59;59574.63;;;-145.46;32.75
76478;BME280;65309;49.790;18.972;2023-07-08T12:27:02;59587.22;;;-145.46;32.61
76478;BME280;65309;49.790;18.972;2023-07-08T12:32:05;59578.81;;;-145.46;32.63
76478;BME280;65309;49.790;18.972;2023-07-08T12:37:12;59591.44;;;-145.46;32.70
76478;BME280;65309;49.790;18.972;2023-07-08T12:42:14;59620.88;;;-145.46;32.62
76478;BME280;65309;49.790;18.972;2023-07-08T12:47:19;59612.44;;;-145.46;31.03
76478;BME280;65309;49.790;18.972;2023-07-08T12:52:23;59566.22;;;-145.46;32.20
76478;BME280;65309;49.790;18.972;2023-07-08T12:57:25;59570.41;;;-145.46;31.72
76478;BME280;65309;49.790;18.972;2023-07-08T13:02:30;59583.03;;;-145.46;33.15
76478;BME280;65309;49.790;18.972;2023-07-08T13:07:37;59549.41;;;-145.46;30.08
76478;BME280;65309;49.790;18.972;2023-07-08T13:12:40;59549.41;;;-145.46;30.85
76478;BME280;65309;49.790;18.972;2023-07-08T13:17:42;59604.03;;;-145.46;31.12
76478;BME280;65309;49.790;18.972;2023-07-08T13:22:51;59541.00;;;-145.46;30.48
76478;BME280;65309;49.790;18.972;2023-07-08T13:27:55;59578.81;;;-145.46;30.86
76478;BME280;65309;49.790;18.972;2023-07-08T13:32:59;59574.63;;;-145.46;31.29
76478;BME280;65309;49.790;18.972;2023-07-08T13:38:03;59576.72;;;-145.46;31.27
76478;BME280;65309;49.790;18.972;2023-07-08T13:43:05;59578.81;;;-145.46;30.36
76478;BME280;65309;49.790;18.972;2023-07-08T13:48:13;59545.19;;;-145.46;30.33
76478;BME280;65309;49.790;18.972;2023-07-08T13:53:23;59599.84;;;-145.46;29.93
76478;BME280;65309;49.790;18.972;2023-07-08T13:58:27;59509.47;;;-145.46;29.62
76478;BME280;65309;49.790;18.972;2023-07-08T14:03:30;59541.00;;;-145.46;30.72
76478;BME280;65309;49.790;18.972;2023-07-08T14:08:34;59532.56;;;-145.46;30.34
76478;BME280;65309;49.790;18.972;2023-07-08T14:13:36;59583.03;;;-145.46;30.00
76478;BME280;65309;49.790;18.972;2023-07-08T14:18:38;59553.59;;;-145.46;30.90
76478;BME280;65309;49.790;18.972;2023-07-08T14:23:41;59536.78;;;-145.46;30.54
76478;BME280;65309;49.790;18.972;2023-07-08T14:28:43;59536.78;;;-145.46;29.52
76478;BME280;65309;49.790;18.972;2023-07-08T14:33:45;59541.00;;;-145.46;30.89
76478;BME280;65309;49.790;18.972;2023-07-08T14:38:49;59549.41;;;-145.46;30.56
76478;BME280;65309;49.790;18.972;2023-07-08T14:43:51;59545.19;;;-145.46;29.57
76478;BME280;65309;49.790;18.972;2023-07-08T14:48:53;59562.00;;;-145.46;29.09
76478;BME280;65309;49.790;18.972;2023-07-08T14:53:56;59583.03;;;-145.46;29.53
76478;BME280;65309;49.790;18.972;2023-07-08T14:58:58;59553.59;;;-145.46;29.61
76478;BME280;65309;49.790;18.972;2023-07-08T15:04:08;59545.19;;;-145.46;29.84
76478;BME280;65309;49.790;18.972;2023-07-08T15:09:12;59528.38;;;-145.46;30.53
76478;BME280;65309;49.790;18.972;2023-07-08T15:14:18;59557.81;;;-145.46;29.33
76478;BME280;65309;49.790;18.972;2023-07-08T15:19:22;59536.78;;;-145.46;29.89
76478;BME280;65309;49.790;18.972;2023-07-08T15:24:26;59566.22;;;-145.46;29.81
76478;BME280;65309;49.790;18.972;2023-07-08T15:29:28;59553.59;;;-145.46;28.94
76478;BME280;65309;49.790;18.972;2023-07-08T15:34:30;59551.50;;;-145.46;28.56
76478;BME280;65309;49.790;18.972;2023-07-08T15:39:33;59524.16;;;-145.46;28.51
76478;BME280;65309;49.790;18.972;2023-07-08T15:44:35;59534.69;;;-145.46;28.04
76478;BME280;65309;49.790;18.972;2023-07-08T15:49:37;59519.97;;;-145.46;28.57
76478;BME280;65309;49.790;18.972;2023-07-08T15:54:41;59536.78;;;-145.46;26.83
76478;BME280;65309;49.790;18.972;2023-07-08T15:59:43;59536.78;;;-145.46;26.50
76478;BME280;65309;49.790;18.972;2023-07-08T16:04:45;59482.13;;;-145.46;25.71
76478;BME280;65309;49.790;18.972;2023-07-08T16:09:49;59498.94;;;-145.46;25.25
76478;BME280;65309;49.790;18.972;2023-07-08T16:14:51;59414.88;;;-145.46;24.66
76478;BME280;65309;49.790;18.972;2023-07-08T16:19:53;59435.88;;;-145.46;24.24
76478;BME280;65309;49.790;18.972;2023-07-08T16:24:56;59498.94;;;-145.46;24.70
76478;BME280;65309;49.790;18.972;2023-07-08T16:29:58;59448.50;;;-145.46;23.03
76478;BME280;65309;49.790;18.972;2023-07-08T16:35:00;59465.31;;;-145.46;24.49
76478;BME280;65309;49.790;18.972;2023-07-08T16:40:05;59465.31;;;-145.46;24.38
76478;BME280;65309;49.790;18.972;2023-07-08T16:45:10;59448.50;;;-145.46;24.05
76478;BME280;65309;49.790;18.972;2023-07-08T16:50:17;59442.19;;;-145.46;23.56
76478;BME280;65309;49.790;18.972;2023-07-08T16:55:21;59452.72;;;-145.46;22.61
76478;BME280;65309;49.790;18.972;2023-07-08T17:00:23;59463.22;;;-145.46;23.75
76478;BME280;65309;49.790;18.972;2023-07-08T17:05:28;59486.34;;;-145.46;24.63
76478;BME280;65309;49.790;18.972;2023-07-08T17:10:32;59551.50;;;-145.46;29.88
76478;BME280;65309;49.790;18.972;2023-07-08T17:15:34;59517.88;;;-145.46;31.97
76478;BME280;65309;49.790;18.972;2023-07-08T17:20:38;59498.94;;;-145.46;32.46
76478;BME280;65309;49.790;18.972;2023-07-08T17:25:42;59507.34;;;-145.46;32.08
76478;BME280;65309;49.790;18.972;2023-07-08T17:30:48;59574.63;;;-145.46;33.11
76478;BME280;65309;49.790;18.972;2023-07-08T17:35:51;59593.53;;;-145.46;35.66
76478;BME280;65309;49.790;18.972;2023-07-08T17:40:57;59543.09;;;-145.46;36.83
76478;BME280;65309;49.790;18.972;2023-07-08T17:46:00;59530.47;;;-145.46;34.74
76478;BME280;65309;49.790;18.972;2023-07-08T17:51:05;59591.44;;;-145.46;37.52
76478;BME280;65309;49.790;18.972;2023-07-08T17:56:17;59557.81;;;-145.46;38.95
76478;BME280;65309;49.790;18.972;2023-07-08T18:01:20;59591.44;;;-145.46;39.24
76478;BME280;65309;49.790;18.972;2023-07-08T18:06:24;59601.94;;;-145.46;39.61
76478;BME280;65309;49.790;18.972;2023-07-08T18:11:28;59633.47;;;-145.46;41.61
76478;BME280;65309;49.790;18.972;2023-07-08T18:16:31;59633.47;;;-145.46;43.56
76478;BME280;65309;49.790;18.972;2023-07-08T18:21:33;59677.63;;;-145.46;45.96
76478;BME280;65309;49.790;18.972;2023-07-08T18:26:36;59646.09;;;-145.46;47.33
76478;BME280;65309;49.790;18.972;2023-07-08T18:31:38;59646.09;;;-145.46;48.33
76478;BME280;65309;49.790;18.972;2023-07-08T18:36:43;59616.66;;;-145.46;48.95
76478;BME280;65309;49.790;18.972;2023-07-08T18:41:47;59675.50;;;-145.46;49.42
76478;BME280;65309;49.790;18.972;2023-07-08T18:46:50;59679.72;;;-145.46;50.77
76478;BME280;65309;49.790;18.972;2023-07-08T18:51:52;59679.72;;;-145.46;51.54
76478;BME280;65309;49.790;18.972;2023-07-08T18:56:55;59688.13;;;-145.46;51.90
76478;BME280;65309;49.790;18.972;2023-07-08T19:01:58;59696.53;;;-145.46;52.49
76478;BME280;65309;49.790;18.972;2023-07-08T19:07:00;59654.50;;;-145.46;53.59
76478;BME280;65309;49.790;18.972;2023-07-08T19:12:08;59692.31;;;-145.46;54.68
76478;BME280;65309;49.790;18.972;2023-07-08T19:17:10;59683.91;;;-145.46;54.76
76478;BME280;65309;49.790;18.972;2023-07-08T19:22:13;59683.91;;;-145.46;54.49
76478;BME280;65309;49.790;18.972;2023-07-08T19:27:18;59667.09;;;-145.46;55.12
76478;BME280;65309;49.790;18.972;2023-07-08T19:32:20;59692.31;;;-145.46;54.27
76478;BME280;65309;49.790;18.972;2023-07-08T19:37:22;59696.53;;;-145.46;54.13
76478;BME280;65309;49.790;18.972;2023-07-08T19:42:26;59658.69;;;-145.46;53.99
76478;BME280;65309;49.790;18.972;2023-07-08T19:47:28;59688.13;;;-145.46;54.70
76478;BME280;65309;49.790;18.972;2023-07-08T19:52:30;59707.03;;;-145.46;54.06
76478;BME280;65309;49.790;18.972;2023-07-08T19:57:41;59698.63;;;-145.46;54.30
76478;BME280;65309;49.790;18.972;2023-07-08T20:02:47;59696.53;;;-145.46;53.24
76478;BME280;65309;49.790;18.972;2023-07-08T20:07:59;59692.31;;;-145.46;54.06
76478;BME280;65309;49.790;18.972;2023-07-08T20:13:07;59694.44;;;-145.46;53.58
76478;BME280;65309;49.790;18.972;2023-07-08T20:18:11;59677.63;;;-145.46;53.95
76478;BME280;65309;49.790;18.972;2023-07-08T20:23:14;59688.13;;;-145.46;54.50
76478;BME280;65309;49.790;18.972;2023-07-08T20:28:20;59700.75;;;-145.46;53.86
76478;BME280;65309;49.790;18.972;2023-07-08T20:33:29;59667.09;;;-145.46;53.08
76478;BME280;65309;49.790;18.972;2023-07-08T20:38:31;59694.44;;;-145.46;53.41
76478;BME280;65309;49.790;18.972;2023-07-08T20:43:35;59696.53;;;-145.46;53.31
76478;BME280;65309;49.790;18.972;2023-07-08T20:48:37;59704.94;;;-145.46;53.17
76478;BME280;65309;49.790;18.972;2023-07-08T20:53:39;59688.13;;;-145.46;51.79
76478;BME280;65309;49.790;18.972;2023-07-08T20:58:42;59717.56;;;-145.46;51.13
76478;BME280;65309;49.790;18.972;2023-07-08T21:03:45;59683.91;;;-145.46;50.87
76478;BME280;65309;49.790;18.972;2023-07-08T21:08:47;59728.06;;;-145.46;50.53
76478;BME280;65309;49.790;18.972;2023-07-08T21:13:51;59702.84;;;-145.46;50.51
76478;BME280;65309;49.790;18.972;2023-07-08T21:18:55;59707.03;;;-145.46;51.02
76478;BME280;65309;49.790;18.972;2023-07-08T21:23:57;59730.16;;;-145.46;51.68
76478;BME280;65309;49.790;18.972;2023-07-08T21:29:01;59738.56;;;-145.46;51.38
76478;BME280;65309;49.790;18.972;2023-07-08T21:34:05;59780.63;;;-145.46;52.14
76478;BME280;65309;49.790;18.972;2023-07-08T21:39:16;59755.38;;;-145.46;53.25
76478;BME280;65309;49.790;18.972;2023-07-08T21:44:21;59759.59;;;-145.46;53.98
76478;BME280;65309;49.790;18.972;2023-07-08T21:49:23;59780.63;;;-145.46;54.01
76478;BME280;65309;49.790;18.972;2023-07-08T21:54:25;59814.25;;;-145.46;53.20
76478;BME280;65309;49.790;18.972;2023-07-08T21:59:28;59738.56;;;-145.46;53.91
76478;BME280;65309;49.790;18.972;2023-07-08T22:04:35;59751.19;;;-145.46;54.65
76478;BME280;65309;49.790;18.972;2023-07-08T22:09:38;59797.44;;;-145.46;55.83
76478;BME280;65309;49.790;18.972;2023-07-08T22:14:41;59770.09;;;-145.46;54.08
76478;BME280;65309;49.790;18.972;2023-07-08T22:19:43;59734.38;;;-145.46;54.89
76478;BME280;65309;49.790;18.972;2023-07-08T22:24:45;59721.75;;;-145.46;55.24
76478;BME280;65309;49.790;18.972;2023-07-08T22:29:49;59721.75;;;-145.46;54.82
76478;BME280;65309;49.790;18.972;2023-07-08T22:34:52;59702.84;;;-145.46;54.62
76478;BME280;65309;49.790;18.972;2023-07-08T22:39:54;59704.94;;;-145.46;54.94
76478;BME280;65309;49.790;18.972;2023-07-08T22:44:57;59709.16;;;-145.46;55.16
76478;BME280;65309;49.790;18.972;2023-07-08T22:50:00;59730.16;;;-145.46;54.49
76478;BME280;65309;49.790;18.972;2023-07-08T22:55:11;59704.94;;;-145.46;53.66
76478;BME280;65309;49.790;18.972;2023-07-08T23:00:19;59719.66;;;-145.46;54.86
76478;BME280;65309;49.790;18.972;2023-07-08T23:05:25;59704.94;;;-145.46;56.04
76478;BME280;65309;49.790;18.972;2023-07-08T23:10:28;59692.31;;;-145.46;55.43
76478;BME280;65309;49.790;18.972;2023-07-08T23:15:31;59725.97;;;-145.46;55.11
76478;BME280;65309;49.790;18.972;2023-07-08T23:20:33;59725.97;;;-145.46;55.84
76478;BME280;65309;49.790;18.972;2023-07-08T23:25:35;59696.53;;;-145.46;55.88
76478;BME280;65309;49.790;18.972;2023-07-08T23:30:39;59717.56;;;-145.46;56.54
76478;BME280;65309;49.790;18.972;2023-07-08T23:35:41;59700.75;;;-145.46;56.88
76478;BME280;65309;49.790;18.972;2023-07-08T23:40:44;59673.41;;;-145.46;56.75
76478;BME280;65309;49.790;18.972;2023-07-08T23:45:48;59669.22;;;-145.46;56.13
76478;BME280;65309;49.790;18.972;2023-07-08T23:50:51;59690.22;;;-145.46;56.79
76478;BME280;65309;49.790;18.972;2023-07-08T23:55:53;59702.84;;;-145.46;56.99
